Taurus — WDB5562 — position and weather

sailwx.info

Track history (hours):
 
Tides and Currents Weather Stations Pressure Air Temp Water Temp Dewpoint Dewpoint Depression Visibility Wind Speed Wind Dir Waves Ship Positions

Taurus

Owner: Kirby Offshore Marine, LLC, Seattle, WA. More information available from US FCC via Universal Licensing System and Coast Guard Vessel Documentation Center.

Last reported at 2017-Apr-25 21:29 UTC. Time now 2017-Apr-26 06:11 UTC.
Position N 39°54' W 075°12'.

Length 24 m.

Type: Ship (hazmat cat B). MMSI: 366910990.

Date/timePositionNaut miles runAvg speedWind from/ knotsBaromVisibWave heightAir tempDewpointWater temp
2017-Apr-25 21:29N 39°54' W 075°12'1 1.7
2017-Apr-25 21:00N 39°54' W 075°13'1 2.6
2017-Apr-25 20:31N 39°53' W 075°12'3 6.7
2017-Apr-25 20:00N 39°54' W 075°08'4 7.4
2017-Apr-25 19:31N 39°58' W 075°07'2 4.4
2017-Apr-25 19:00N 39°59' W 075°05'1 1.2
2017-Apr-25 18:31N 39°59' W 075°05'1 2.9
2017-Apr-25 18:01N 39°58' W 075°07'1 1.8
2017-Apr-25 17:31N 39°57' W 075°08'0 0.1
2017-Apr-25 17:01N 39°57' W 075°08'2 3.8
2017-Apr-25 16:30N 39°58' W 075°06'1 1.9
2017-Apr-25 16:01N 39°59' W 075°05'0 0.0
2017-Apr-25 15:31N 39°59' W 075°05'0 0.0
2017-Apr-25 15:01N 39°59' W 075°05'0 0.0
2017-Apr-25 14:31N 39°59' W 075°05'0 0.0
2017-Apr-25 13:31N 39°59' W 075°05'0 0.0
2017-Apr-25 13:00N 39°59' W 075°05'0 0.0
2017-Apr-25 12:31N 39°59' W 075°05'0 0.0
2017-Apr-25 12:01N 39°59' W 075°05'0 0.0
2017-Apr-25 11:31N 39°59' W 075°05'2 5.0
2017-Apr-25 11:01N 39°58' W 075°08'3 5.8
2017-Apr-25 10:30N 39°55' W 075°08'3 5.0
2017-Apr-25 10:01N 39°53' W 075°10'2 3.4
2017-Apr-25 09:31N 39°53' W 075°12'1 1.7
2017-Apr-25 09:00N 39°54' W 075°13'1 1.5
2017-Apr-25 08:31N 39°54' W 075°12'0 0.0
2017-Apr-24 21:34N 39°54' W 075°12'0 0.2
2017-Apr-24 21:30N 39°54' W 075°12'3 6.2
2017-Apr-24 21:00N 39°54' W 075°08'3 6.0
2017-Apr-24 20:31N 39°57' W 075°08'2 4.9
2017-Apr-24 20:00N 39°55' W 075°08'2 4.9
2017-Apr-24 19:30N 39°53' W 075°10'3 5.3
2017-Apr-24 19:01N 39°52' W 075°13'3 5.8
2017-Apr-24 18:30N 39°51' W 075°16'1 2.6
2017-Apr-24 18:01N 39°51' W 075°18'5 9.1
2017-Apr-24 17:30N 39°53' W 075°12'2 4.2
2017-Apr-24 17:00N 39°55' W 075°13'0 0.1
2017-Apr-24 16:30N 39°55' W 075°13'0 0.1
2017-Apr-24 16:00N 39°55' W 075°13'0 0.0
2017-Apr-24 15:30N 39°55' W 075°13'0 0.0
2017-Apr-24 15:01N 39°55' W 075°13'1 0.0
2017-Apr-23 18:39N 39°54' W 075°12'0 2.1
2017-Apr-23 18:31N 39°54' W 075°12'0 0.3
2017-Apr-23 18:00N 39°54' W 075°12'2 4.7
2017-Apr-23 17:31N 39°53' W 075°09'3 6.2
2017-Apr-23 17:00N 39°56' W 075°08'3 5.7
2017-Apr-23 16:31N 39°58' W 075°06'2 3.1
2017-Apr-23 16:01N 39°59' W 075°05'0 0.1
2017-Apr-23 15:30N 39°59' W 075°05'0 0.0
2017-Apr-23 15:00N 39°59' W 075°05'0 0.0
2017-Apr-23 14:01N 39°59' W 075°05'0 0.0
2017-Apr-23 13:31N 39°59' W 075°05'0 0.0
2017-Apr-23 13:01N 39°59' W 075°05'0 0.0
2017-Apr-23 12:30N 39°59' W 075°05'0 0.0
2017-Apr-23 12:01N 39°59' W 075°05'0 0.0
2017-Apr-23 11:31N 39°59' W 075°05'0 0.3
2017-Apr-23 11:00N 39°59' W 075°05'3 6.0
2017-Apr-23 10:30N 39°57' W 075°08'3 6.6
2017-Apr-23 10:00N 39°54' W 075°08'3 5.7
2017-Apr-23 09:30N 39°53' W 075°11'1 2.9
2017-Apr-23 09:01N 39°54' W 075°13'1 0.1
2017-Apr-22 18:44N 39°54' W 075°12'1 3.2
2017-Apr-22 18:31N 39°54' W 075°13'1 1.2
2017-Apr-22 18:01N 39°54' W 075°12'3 5.1
2017-Apr-22 17:31N 39°53' W 075°09'4 7.7
2017-Apr-22 17:00N 39°57' W 075°08'3 6.9
2017-Apr-22 16:31N 39°59' W 075°05'0 0.0
2017-Apr-22 16:01N 39°59' W 075°05'0 0.0
2017-Apr-22 15:31N 39°59' W 075°05'0 0.0
2017-Apr-22 15:01N 39°59' W 075°05'0 0.0
2017-Apr-22 14:31N 39°59' W 075°05'0 0.0
2017-Apr-22 13:31N 39°59' W 075°05'0 0.0
2017-Apr-22 13:01N 39°59' W 075°05'0 0.0
2017-Apr-22 12:31N 39°59' W 075°05'0 0.0
2017-Apr-22 12:01N 39°59' W 075°05'0 0.0
2017-Apr-22 11:31N 39°59' W 075°05'1 2.8
2017-Apr-22 11:01N 39°58' W 075°06'4 7.5
2017-Apr-22 10:30N 39°55' W 075°08'3 6.5
2017-Apr-22 10:00N 39°53' W 075°11'1 2.9
2017-Apr-22 09:31N 39°54' W 075°13'1 1.4
2017-Apr-22 09:01N 39°54' W 075°12'0 0.0
2017-Apr-20 18:14N 39°54' W 075°12'1 3.4
2017-Apr-20 18:01N 39°54' W 075°13'1 1.2
2017-Apr-20 17:30N 39°54' W 075°12'3 5.2
2017-Apr-20 17:00N 39°53' W 075°09'4 7.7
2017-Apr-20 16:30N 39°57' W 075°08'4 7.0
2017-Apr-20 16:00N 39°59' W 075°05'0 0.0
2017-Apr-20 15:30N 39°59' W 075°05'0 0.0
2017-Apr-20 15:00N 39°59' W 075°05'0 0.0
2017-Apr-20 14:00N 39°59' W 075°05'0 0.0
2017-Apr-20 13:30N 39°59' W 075°05'0 0.0
2017-Apr-20 13:00N 39°59' W 075°05'0 0.0
2017-Apr-20 12:30N 39°59' W 075°05'0 0.0
2017-Apr-20 12:00N 39°59' W 075°05'0 0.0
2017-Apr-20 11:30N 39°59' W 075°05'0 0.6
2017-Apr-20 11:00N 39°59' W 075°05'4 7.8
2017-Apr-20 10:30N 39°56' W 075°08'4 7.2
2017-Apr-20 10:00N 39°53' W 075°11'2 3.5
2017-Apr-20 09:30N 39°54' W 075°13'1 1.5
2017-Apr-20 09:00N 39°54' W 075°12'0 0.0
2017-Apr-19 16:37N 39°54' W 075°12'0 0.0
2017-Apr-19 16:30N 39°54' W 075°12'0 0.0
2017-Apr-19 16:00N 39°54' W 075°12'2 4.5
2017-Apr-19 15:31N 39°52' W 075°13'4 7.1
2017-Apr-19 15:00N 39°51' W 075°18'3 6.9
2017-Apr-19 14:31N 39°50' W 075°22'5 4.9
2017-Apr-19 13:31N 39°47' W 075°27'4 7.5
2017-Apr-19 13:00N 39°44' W 075°30'4 7.7
2017-Apr-19 12:30N 39°40' W 075°32'4 7.8
2017-Apr-19 12:00N 39°37' W 075°35'4 8.2
2017-Apr-19 11:30N 39°33' W 075°33'2 4.5
2017-Apr-19 11:00N 39°34' W 075°30'1 1.6
2017-Apr-19 10:30N 39°34' W 075°29'0 0.3
2017-Apr-19 10:00N 39°35' W 075°29'0 0.3
2017-Apr-19 09:30N 39°34' W 075°29'0 0.0
2017-Apr-19 09:00N 39°34' W 075°29'0 0.0
2017-Apr-19 08:30N 39°34' W 075°29'0 0.0
2017-Apr-19 08:00N 39°34' W 075°29'0 0.0
2017-Apr-19 07:30N 39°34' W 075°29'0 0.0
2017-Apr-19 07:00N 39°34' W 075°29'0 0.0
2017-Apr-19 06:30N 39°34' W 075°29'0 0.0
2017-Apr-19 06:00N 39°34' W 075°29'0 0.0
2017-Apr-19 05:30N 39°34' W 075°29'0 0.0
2017-Apr-19 05:00N 39°34' W 075°29'0 0.0
2017-Apr-19 04:31N 39°34' W 075°29'0 0.0
2017-Apr-19 04:00N 39°34' W 075°29'0 0.0
2017-Apr-19 03:30N 39°34' W 075°29'0 0.0
2017-Apr-19 03:00N 39°34' W 075°29'0 0.0
2017-Apr-19 02:30N 39°34' W 075°29'0 0.0
2017-Apr-19 02:00N 39°34' W 075°29'0 0.0
2017-Apr-19 01:30N 39°34' W 075°29'0 0.0
2017-Apr-19 01:00N 39°34' W 075°29'0 0.0
2017-Apr-19 00:30N 39°34' W 075°29'0 0.0
2017-Apr-19 00:00N 39°34' W 075°29'0 0.0
2017-Apr-18 23:30N 39°34' W 075°29'0 0.0
2017-Apr-18 23:00N 39°34' W 075°29'0 0.0
2017-Apr-18 22:30N 39°34' W 075°29'0 0.0
2017-Apr-18 22:00N 39°34' W 075°29'0 0.0
2017-Apr-18 21:30N 39°34' W 075°29'0 0.0
2017-Apr-18 21:00N 39°34' W 075°29'0 0.0
2017-Apr-18 20:30N 39°34' W 075°29'0 0.0
2017-Apr-18 20:00N 39°34' W 075°29'0 0.0
2017-Apr-18 19:31N 39°34' W 075°29'0 0.0
2017-Apr-18 19:00N 39°34' W 075°29'0 0.0
2017-Apr-18 18:30N 39°34' W 075°29'0 0.0
2017-Apr-18 18:00N 39°34' W 075°29'0 0.0
2017-Apr-18 17:30N 39°34' W 075°29'0 0.0
2017-Apr-18 17:00N 39°34' W 075°29'0 0.0
2017-Apr-18 16:30N 39°34' W 075°29'0 0.3
2017-Apr-18 16:00N 39°35' W 075°29'0 0.5
2017-Apr-18 15:30N 39°34' W 075°29'0 0.1
2017-Apr-18 15:00N 39°34' W 075°29'0 0.0
2017-Apr-18 14:30N 39°34' W 075°29'0 0.0
2017-Apr-18 13:30N 39°34' W 075°29'0 0.0
2017-Apr-18 13:01N 39°34' W 075°29'0 0.0
2017-Apr-18 12:30N 39°34' W 075°29'0 0.0
2017-Apr-18 12:00N 39°34' W 075°29'0 0.0
2017-Apr-18 11:30N 39°34' W 075°29'0 0.0
2017-Apr-18 11:00N 39°34' W 075°29'0 0.0
2017-Apr-18 10:30N 39°34' W 075°29'0 0.0
2017-Apr-18 10:00N 39°34' W 075°29'0 0.3
2017-Apr-18 09:30N 39°34' W 075°29'0 0.6
2017-Apr-18 09:00N 39°35' W 075°29'0 0.0
2017-Apr-17 17:48N 39°34' W 075°29'0 0.0
2017-Apr-17 17:30N 39°34' W 075°29'0 0.1
2017-Apr-17 17:01N 39°34' W 075°29'0 0.0
2017-Apr-17 16:31N 39°34' W 075°29'0 0.2
2017-Apr-17 16:00N 39°34' W 075°29'1 1.6
2017-Apr-17 15:30N 39°34' W 075°30'2 3.7
2017-Apr-17 15:00N 39°33' W 075°32'2 3.5
2017-Apr-17 14:30N 39°34' W 075°33'7 7.1
2017-Apr-17 13:30N 39°41' W 075°31'4 8.1
2017-Apr-17 13:00N 39°45' W 075°29'4 7.6
2017-Apr-17 12:30N 39°48' W 075°26'1 1.8
2017-Apr-17 11:58N 39°49' W 075°25'0 0.2
2017-Apr-17 11:30N 39°49' W 075°25'0 0.8
2017-Apr-17 11:00N 39°49' W 075°24'1 1.4
2017-Apr-17 10:30N 39°49' W 075°24'1 2.1
2017-Apr-17 10:00N 39°49' W 075°25'2 3.7
2017-Apr-17 09:30N 39°49' W 075°23'4 7.3
2017-Apr-17 09:00N 39°51' W 075°18'4 7.2
2017-Apr-17 08:31N 39°52' W 075°14'3 0.2
2017-Apr-16 17:50N 39°54' W 075°12'1 2.2
2017-Apr-16 17:30N 39°54' W 075°13'0 0.5
2017-Apr-16 17:00N 39°54' W 075°12'3 5.1
2017-Apr-16 16:30N 39°53' W 075°09'3 6.8
2017-Apr-16 16:01N 39°56' W 075°08'3 6.9
2017-Apr-16 15:30N 39°59' W 075°05'0 0.9
2017-Apr-16 15:00N 39°59' W 075°05'0 0.0
2017-Apr-16 00:25N 39°59' W 075°05'0 0.2
2017-Apr-16 00:01N 39°59' W 075°05'2 4.3
2017-Apr-15 23:30N 39°58' W 075°07'3 5.9
2017-Apr-15 23:00N 39°55' W 075°08'3 5.6
2017-Apr-15 22:30N 39°53' W 075°10'2 4.2
2017-Apr-15 22:00N 39°54' W 075°13'0 0.1
2017-Apr-15 21:30N 39°54' W 075°13'  
Track history (hours):
 
Tides and Currents Weather Stations Pressure Air Temp Water Temp Dewpoint Dewpoint Depression Visibility Wind Speed Wind Dir Waves Ship Positions

Taurus

Owner: Kirby Offshore Marine, LLC, Seattle, WA. More information available from US FCC via Universal Licensing System and Coast Guard Vessel Documentation Center.

Last reported at 2017-Apr-25 21:29 UTC. Time now 2017-Apr-26 06:11 UTC.
Position N 39°54' W 075°12'.

Length 24 m.

Type: Ship (hazmat cat B). MMSI: 366910990.

Date/timePositionNaut miles runAvg speedWind from/ knotsBaromVisibWave heightAir tempDewpointWater temp
2017-Apr-25 21:29N 39°54' W 075°12'1 1.7
2017-Apr-25 21:00N 39°54' W 075°13'1 2.6
2017-Apr-25 20:31N 39°53' W 075°12'3 6.7
2017-Apr-25 20:00N 39°54' W 075°08'4 7.4
2017-Apr-25 19:31N 39°58' W 075°07'2 4.4
2017-Apr-25 19:00N 39°59' W 075°05'1 1.2
2017-Apr-25 18:31N 39°59' W 075°05'1 2.9
2017-Apr-25 18:01N 39°58' W 075°07'1 1.8
2017-Apr-25 17:31N 39°57' W 075°08'0 0.1
2017-Apr-25 17:01N 39°57' W 075°08'2 3.8
2017-Apr-25 16:30N 39°58' W 075°06'1 1.9
2017-Apr-25 16:01N 39°59' W 075°05'0 0.0
2017-Apr-25 15:31N 39°59' W 075°05'0 0.0
2017-Apr-25 15:01N 39°59' W 075°05'0 0.0
2017-Apr-25 14:31N 39°59' W 075°05'0 0.0
2017-Apr-25 13:31N 39°59' W 075°05'0 0.0
2017-Apr-25 13:00N 39°59' W 075°05'0 0.0
2017-Apr-25 12:31N 39°59' W 075°05'0 0.0
2017-Apr-25 12:01N 39°59' W 075°05'0 0.0
2017-Apr-25 11:31N 39°59' W 075°05'2 5.0
2017-Apr-25 11:01N 39°58' W 075°08'3 5.8
2017-Apr-25 10:30N 39°55' W 075°08'3 5.0
2017-Apr-25 10:01N 39°53' W 075°10'2 3.4
2017-Apr-25 09:31N 39°53' W 075°12'1 1.7
2017-Apr-25 09:00N 39°54' W 075°13'1 1.5
2017-Apr-25 08:31N 39°54' W 075°12'0 0.0
2017-Apr-24 21:34N 39°54' W 075°12'0 0.2
2017-Apr-24 21:30N 39°54' W 075°12'3 6.2
2017-Apr-24 21:00N 39°54' W 075°08'3 6.0
2017-Apr-24 20:31N 39°57' W 075°08'2 4.9
2017-Apr-24 20:00N 39°55' W 075°08'2 4.9
2017-Apr-24 19:30N 39°53' W 075°10'3 5.3
2017-Apr-24 19:01N 39°52' W 075°13'3 5.8
2017-Apr-24 18:30N 39°51' W 075°16'1 2.6
2017-Apr-24 18:01N 39°51' W 075°18'5 9.1
2017-Apr-24 17:30N 39°53' W 075°12'2 4.2
2017-Apr-24 17:00N 39°55' W 075°13'0 0.1
2017-Apr-24 16:30N 39°55' W 075°13'0 0.1
2017-Apr-24 16:00N 39°55' W 075°13'0 0.0
2017-Apr-24 15:30N 39°55' W 075°13'0 0.0
2017-Apr-24 15:01N 39°55' W 075°13'1 0.0
2017-Apr-23 18:39N 39°54' W 075°12'0 2.1
2017-Apr-23 18:31N 39°54' W 075°12'0 0.3
2017-Apr-23 18:00N 39°54' W 075°12'2 4.7
2017-Apr-23 17:31N 39°53' W 075°09'3 6.2
2017-Apr-23 17:00N 39°56' W 075°08'3 5.7
2017-Apr-23 16:31N 39°58' W 075°06'2 3.1
2017-Apr-23 16:01N 39°59' W 075°05'0 0.1
2017-Apr-23 15:30N 39°59' W 075°05'0 0.0
2017-Apr-23 15:00N 39°59' W 075°05'0 0.0
2017-Apr-23 14:01N 39°59' W 075°05'0 0.0
2017-Apr-23 13:31N 39°59' W 075°05'0 0.0
2017-Apr-23 13:01N 39°59' W 075°05'0 0.0
2017-Apr-23 12:30N 39°59' W 075°05'0 0.0
2017-Apr-23 12:01N 39°59' W 075°05'0 0.0
2017-Apr-23 11:31N 39°59' W 075°05'0 0.3
2017-Apr-23 11:00N 39°59' W 075°05'3 6.0
2017-Apr-23 10:30N 39°57' W 075°08'3 6.6
2017-Apr-23 10:00N 39°54' W 075°08'3 5.7
2017-Apr-23 09:30N 39°53' W 075°11'1 2.9
2017-Apr-23 09:01N 39°54' W 075°13'1 0.1
2017-Apr-22 18:44N 39°54' W 075°12'1 3.2
2017-Apr-22 18:31N 39°54' W 075°13'1 1.2
2017-Apr-22 18:01N 39°54' W 075°12'3 5.1
2017-Apr-22 17:31N 39°53' W 075°09'4 7.7
2017-Apr-22 17:00N 39°57' W 075°08'3 6.9
2017-Apr-22 16:31N 39°59' W 075°05'0 0.0
2017-Apr-22 16:01N 39°59' W 075°05'0 0.0
2017-Apr-22 15:31N 39°59' W 075°05'0 0.0
2017-Apr-22 15:01N 39°59' W 075°05'0 0.0
2017-Apr-22 14:31N 39°59' W 075°05'0 0.0
2017-Apr-22 13:31N 39°59' W 075°05'0 0.0
2017-Apr-22 13:01N 39°59' W 075°05'0 0.0
2017-Apr-22 12:31N 39°59' W 075°05'0 0.0
2017-Apr-22 12:01N 39°59' W 075°05'0 0.0
2017-Apr-22 11:31N 39°59' W 075°05'1 2.8
2017-Apr-22 11:01N 39°58' W 075°06'4 7.5
2017-Apr-22 10:30N 39°55' W 075°08'3 6.5
2017-Apr-22 10:00N 39°53' W 075°11'1 2.9
2017-Apr-22 09:31N 39°54' W 075°13'1 1.4
2017-Apr-22 09:01N 39°54' W 075°12'0 0.0
2017-Apr-20 18:14N 39°54' W 075°12'1 3.4
2017-Apr-20 18:01N 39°54' W 075°13'1 1.2
2017-Apr-20 17:30N 39°54' W 075°12'3 5.2
2017-Apr-20 17:00N 39°53' W 075°09'4 7.7
2017-Apr-20 16:30N 39°57' W 075°08'4 7.0
2017-Apr-20 16:00N 39°59' W 075°05'0 0.0
2017-Apr-20 15:30N 39°59' W 075°05'0 0.0
2017-Apr-20 15:00N 39°59' W 075°05'0 0.0
2017-Apr-20 14:00N 39°59' W 075°05'0 0.0
2017-Apr-20 13:30N 39°59' W 075°05'0 0.0
2017-Apr-20 13:00N 39°59' W 075°05'0 0.0
2017-Apr-20 12:30N 39°59' W 075°05'0 0.0
2017-Apr-20 12:00N 39°59' W 075°05'0 0.0
2017-Apr-20 11:30N 39°59' W 075°05'0 0.6
2017-Apr-20 11:00N 39°59' W 075°05'4 7.8
2017-Apr-20 10:30N 39°56' W 075°08'4 7.2
2017-Apr-20 10:00N 39°53' W 075°11'2 3.5
2017-Apr-20 09:30N 39°54' W 075°13'1 1.5
2017-Apr-20 09:00N 39°54' W 075°12'0 0.0
2017-Apr-19 16:37N 39°54' W 075°12'0 0.0
2017-Apr-19 16:30N 39°54' W 075°12'0 0.0
2017-Apr-19 16:00N 39°54' W 075°12'2 4.5
2017-Apr-19 15:31N 39°52' W 075°13'4 7.1
2017-Apr-19 15:00N 39°51' W 075°18'3 6.9
2017-Apr-19 14:31N 39°50' W 075°22'5 4.9
2017-Apr-19 13:31N 39°47' W 075°27'4 7.5
2017-Apr-19 13:00N 39°44' W 075°30'4 7.7
2017-Apr-19 12:30N 39°40' W 075°32'4 7.8
2017-Apr-19 12:00N 39°37' W 075°35'4 8.2
2017-Apr-19 11:30N 39°33' W 075°33'2 4.5
2017-Apr-19 11:00N 39°34' W 075°30'1 1.6
2017-Apr-19 10:30N 39°34' W 075°29'0 0.3
2017-Apr-19 10:00N 39°35' W 075°29'0 0.3
2017-Apr-19 09:30N 39°34' W 075°29'0 0.0
2017-Apr-19 09:00N 39°34' W 075°29'0 0.0
2017-Apr-19 08:30N 39°34' W 075°29'0 0.0
2017-Apr-19 08:00N 39°34' W 075°29'0 0.0
2017-Apr-19 07:30N 39°34' W 075°29'0 0.0
2017-Apr-19 07:00N 39°34' W 075°29'0 0.0
2017-Apr-19 06:30N 39°34' W 075°29'0 0.0
2017-Apr-19 06:00N 39°34' W 075°29'0 0.0
2017-Apr-19 05:30N 39°34' W 075°29'0 0.0
2017-Apr-19 05:00N 39°34' W 075°29'0 0.0
2017-Apr-19 04:31N 39°34' W 075°29'0 0.0
2017-Apr-19 04:00N 39°34' W 075°29'0 0.0
2017-Apr-19 03:30N 39°34' W 075°29'0 0.0
2017-Apr-19 03:00N 39°34' W 075°29'0 0.0
2017-Apr-19 02:30N 39°34' W 075°29'0 0.0
2017-Apr-19 02:00N 39°34' W 075°29'0 0.0
2017-Apr-19 01:30N 39°34' W 075°29'0 0.0
2017-Apr-19 01:00N 39°34' W 075°29'0 0.0
2017-Apr-19 00:30N 39°34' W 075°29'0 0.0
2017-Apr-19 00:00N 39°34' W 075°29'0 0.0
2017-Apr-18 23:30N 39°34' W 075°29'0 0.0
2017-Apr-18 23:00N 39°34' W 075°29'0 0.0
2017-Apr-18 22:30N 39°34' W 075°29'0 0.0
2017-Apr-18 22:00N 39°34' W 075°29'0 0.0
2017-Apr-18 21:30N 39°34' W 075°29'0 0.0
2017-Apr-18 21:00N 39°34' W 075°29'0 0.0
2017-Apr-18 20:30N 39°34' W 075°29'0 0.0
2017-Apr-18 20:00N 39°34' W 075°29'0 0.0
2017-Apr-18 19:31N 39°34' W 075°29'0 0.0
2017-Apr-18 19:00N 39°34' W 075°29'0 0.0
2017-Apr-18 18:30N 39°34' W 075°29'0 0.0
2017-Apr-18 18:00N 39°34' W 075°29'0 0.0
2017-Apr-18 17:30N 39°34' W 075°29'0 0.0
2017-Apr-18 17:00N 39°34' W 075°29'0 0.0
2017-Apr-18 16:30N 39°34' W 075°29'0 0.3
2017-Apr-18 16:00N 39°35' W 075°29'0 0.5
2017-Apr-18 15:30N 39°34' W 075°29'0 0.1
2017-Apr-18 15:00N 39°34' W 075°29'0 0.0
2017-Apr-18 14:30N 39°34' W 075°29'0 0.0
2017-Apr-18 13:30N 39°34' W 075°29'0 0.0
2017-Apr-18 13:01N 39°34' W 075°29'0 0.0
2017-Apr-18 12:30N 39°34' W 075°29'0 0.0
2017-Apr-18 12:00N 39°34' W 075°29'0 0.0
2017-Apr-18 11:30N 39°34' W 075°29'0 0.0
2017-Apr-18 11:00N 39°34' W 075°29'0 0.0
2017-Apr-18 10:30N 39°34' W 075°29'0 0.0
2017-Apr-18 10:00N 39°34' W 075°29'0 0.3
2017-Apr-18 09:30N 39°34' W 075°29'0 0.6
2017-Apr-18 09:00N 39°35' W 075°29'0 0.0
2017-Apr-17 17:48N 39°34' W 075°29'0 0.0
2017-Apr-17 17:30N 39°34' W 075°29'0 0.1
2017-Apr-17 17:01N 39°34' W 075°29'0 0.0
2017-Apr-17 16:31N 39°34' W 075°29'0 0.2
2017-Apr-17 16:00N 39°34' W 075°29'1 1.6
2017-Apr-17 15:30N 39°34' W 075°30'2 3.7
2017-Apr-17 15:00N 39°33' W 075°32'2 3.5
2017-Apr-17 14:30N 39°34' W 075°33'7 7.1
2017-Apr-17 13:30N 39°41' W 075°31'4 8.1
2017-Apr-17 13:00N 39°45' W 075°29'4 7.6
2017-Apr-17 12:30N 39°48' W 075°26'1 1.8
2017-Apr-17 11:58N 39°49' W 075°25'0 0.2
2017-Apr-17 11:30N 39°49' W 075°25'0 0.8
2017-Apr-17 11:00N 39°49' W 075°24'1 1.4
2017-Apr-17 10:30N 39°49' W 075°24'1 2.1
2017-Apr-17 10:00N 39°49' W 075°25'2 3.7
2017-Apr-17 09:30N 39°49' W 075°23'4 7.3
2017-Apr-17 09:00N 39°51' W 075°18'4 7.2
2017-Apr-17 08:31N 39°52' W 075°14'3 0.2
2017-Apr-16 17:50N 39°54' W 075°12'1 2.2
2017-Apr-16 17:30N 39°54' W 075°13'0 0.5
2017-Apr-16 17:00N 39°54' W 075°12'3 5.1
2017-Apr-16 16:30N 39°53' W 075°09'3 6.8
2017-Apr-16 16:01N 39°56' W 075°08'3 6.9
2017-Apr-16 15:30N 39°59' W 075°05'0 0.9
2017-Apr-16 15:00N 39°59' W 075°05'0 0.0
2017-Apr-16 00:25N 39°59' W 075°05'0 0.2
2017-Apr-16 00:01N 39°59' W 075°05'2 4.3
2017-Apr-15 23:30N 39°58' W 075°07'3 5.9
2017-Apr-15 23:00N 39°55' W 075°08'3 5.6
2017-Apr-15 22:30N 39°53' W 075°10'2 4.2
2017-Apr-15 22:00N 39°54' W 075°13'0 0.1
2017-Apr-15 21:30N 39°54' W 075°13'  

Dump ship's entire track history